Vermontville, New York
Current Conditions -  °F | °C
As of 9:51 AM on Wednesday 22 Oct 2014 (Local Time) from KSLK Reporting Station
Haze Haze  
Wind Chill: 34°   Ceiling: 300
Heat Index: 40°   Visibility: 5mi
Dew Point: 39°   Wind: 8mph
Humidity: 97%   Direction: 20°NNE
Pressure: 30.17"   Gusts: NA
Location:  44.45°N, 74.07°W
Report Text: KSLK 221351Z AUTO 02007KT 5SM BR OVC003 04/04 A3017 RMK AO2 SLP228 T00440039
Loading
Personal Weather Stations






























Interactive Weather Map
Tropical Storm Tracking
New forecast layout! Learn more

10-Day Weather Forecast

Advertisements
Track Severe Weather on mobile